Time;durP1;ratioP1;P1;durP2;ratioP2;P2;SDS_P1;SDS_P2;PMS_P1;PMS_P2;Temp;Humidity;BMP_temperature;BMP_pressure;BME280_temperature;BME280_humidity;BME280_pressure;Samples;Min_cycle;Max_cycle;Signal;HPM_P1;HPM_P2
2021/07/08 00:00:36;;;;;;;1.65;1.45;;;23.50;64.20;;;;;;5055208;28;20032;-28
2021/07/08 00:03:02;;;;;;;1.40;1.30;;;23.50;64.40;;;;;;5055139;28;20025;-28
2021/07/08 00:05:28;;;;;;;1.52;1.42;;;23.50;64.20;;;;;;5060444;28;20027;-26
2021/07/08 00:07:58;;;;;;;1.65;1.55;;;23.40;64.10;;;;;;5053270;28;20108;-25
2021/07/08 00:10:29;;;;;;;1.70;1.40;;;23.40;64.30;;;;;;5056711;28;20048;-24
2021/07/08 00:12:56;;;;;;;2.20;1.65;;;23.40;64.20;;;;;;5042360;28;20103;-29
2021/07/08 00:15:23;;;;;;;2.95;1.30;;;23.40;64.10;;;;;;5052935;28;20028;-26
2021/07/08 00:17:49;;;;;;;1.45;1.35;;;23.40;64.30;;;;;;5065244;28;20050;-28
2021/07/08 00:20:16;;;;;;;1.40;1.30;;;23.40;65.00;;;;;;5057880;28;20092;-26
2021/07/08 00:22:42;;;;;;;3.40;1.38;;;23.40;64.20;;;;;;5055895;28;20106;-25
2021/07/08 00:25:09;;;;;;;1.48;1.38;;;23.40;64.20;;;;;;5056439;28;20125;-27
2021/07/08 00:27:35;;;;;;;1.00;1.00;;;23.30;64.40;;;;;;5054389;28;20036;-28
2021/07/08 00:30:00;;;;;;;1.48;1.38;;;23.30;64.60;;;;;;5056593;28;20025;-24
2021/07/08 00:32:26;;;;;;;1.45;1.35;;;23.30;64.40;;;;;;5057014;28;20033;-30
2021/07/08 00:34:51;;;;;;;1.48;1.38;;;23.30;64.60;;;;;;5059473;28;20025;-25
2021/07/08 00:37:17;;;;;;;1.52;1.23;;;23.30;64.60;;;;;;5053486;28;20112;-29
2021/07/08 00:39:42;;;;;;;1.50;1.40;;;23.20;64.70;;;;;;5054045;28;20033;-28
2021/07/08 00:42:08;;;;;;;1.60;0.90;;;23.20;64.90;;;;;;5053866;28;20104;-26
2021/07/08 00:44:34;;;;;;;1.30;1.20;;;23.20;64.70;;;;;;5057220;28;20021;-25
2021/07/08 00:46:59;;;;;;;1.27;1.17;;;23.20;64.80;;;;;;5058925;28;20021;-25
2021/07/08 00:49:25;;;;;;;5.18;1.25;;;23.10;64.70;;;;;;5056293;28;20095;-26
2021/07/08 00:51:50;;;;;;;1.88;1.10;;;23.10;64.60;;;;;;5064621;28;20048;-25
2021/07/08 00:54:16;;;;;;;1.50;1.08;;;23.10;65.50;;;;;;5052010;28;20021;-24
2021/07/08 00:56:42;;;;;;;2.65;1.45;;;23.10;64.80;;;;;;5053134;28;20483;-30
2021/07/08 00:59:08;;;;;;;1.58;1.50;;;23.10;64.80;;;;;;5041595;28;20027;-25
2021/07/08 01:01:34;;;;;;;1.80;1.30;;;23.10;64.90;;;;;;5045971;28;20064;-27
2021/07/08 01:04:03;;;;;;;1.38;1.27;;;23.10;64.90;;;;;;5065733;28;20083;-28
2021/07/08 01:06:30;;;;;;;1.65;1.52;;;23.10;64.90;;;;;;5054121;28;20044;-26
2021/07/08 01:08:55;;;;;;;1.02;1.02;;;23.10;64.90;;;;;;5055553;28;20047;-26
2021/07/08 01:11:22;;;;;;;1.30;1.20;;;23.10;64.90;;;;;;5028523;28;20074;-28
2021/07/08 01:13:47;;;;;;;1.30;1.20;;;23.10;64.80;;;;;;5056022;28;20108;-32
2021/07/08 01:16:13;;;;;;;1.42;1.27;;;23.10;64.80;;;;;;5038632;28;20120;-29
2021/07/08 01:18:39;;;;;;;1.45;1.35;;;23.00;65.10;;;;;;5054360;28;20036;-33
2021/07/08 01:21:21;;;;;;;1.30;1.20;;;23.10;65.00;;;;;;5052955;28;20028;-28
2021/07/08 01:23:47;;;;;;;1.50;1.08;;;23.00;64.90;;;;;;5050988;28;20486;-25
2021/07/08 01:26:13;;;;;;;1.60;1.50;;;23.00;64.90;;;;;;5053664;28;20108;-25
2021/07/08 01:28:38;;;;;;;1.15;1.15;;;23.00;64.90;;;;;;5038998;28;20112;-27
2021/07/08 01:31:06;;;;;;;1.10;1.10;;;23.00;64.90;;;;;;5048251;28;20040;-27
2021/07/08 01:33:32;;;;;;;1.65;1.00;;;23.00;65.00;;;;;;5053500;28;20029;-27
2021/07/08 01:35:59;;;;;;;1.50;1.40;;;23.00;65.10;;;;;;5032675;28;20086;-26
2021/07/08 01:38:25;;;;;;;1.80;1.10;;;23.00;65.90;;;;;;5062425;28;20059;-25
2021/07/08 01:40:50;;;;;;;1.17;1.13;;;23.00;64.90;;;;;;5055244;28;20060;-31
2021/07/08 01:43:17;;;;;;;1.33;1.23;;;22.90;65.00;;;;;;5055125;28;20028;-26
2021/07/08 01:45:42;;;;;;;1.40;1.30;;;22.90;65.00;;;;;;5064088;28;20536;-25
2021/07/08 01:48:08;;;;;;;1.20;1.10;;;22.90;65.00;;;;;;5052679;28;20025;-29
2021/07/08 01:50:34;;;;;;;1.23;1.20;;;23.00;65.00;;;;;;5057588;28;20029;-27
2021/07/08 01:52:59;;;;;;;1.40;1.30;;;22.90;65.00;;;;;;5066167;28;20032;-27
2021/07/08 01:55:25;;;;;;;0.88;0.88;;;22.90;64.90;;;;;;5061618;28;20025;-27
2021/07/08 01:57:56;;;;;;;0.90;0.90;;;22.90;65.00;;;;;;5054069;28;20016;-28
2021/07/08 02:00:22;;;;;;;0.93;0.93;;;22.90;65.10;;;;;;5052692;28;20134;-26
2021/07/08 02:02:48;;;;;;;0.98;0.98;;;23.00;65.10;;;;;;5055975;28;20037;-26
2021/07/08 02:05:13;;;;;;;0.95;0.95;;;22.90;65.20;;;;;;5058443;28;20028;-31
2021/07/08 02:07:39;;;;;;;0.95;0.95;;;22.90;65.10;;;;;;5060334;28;20621;-26
2021/07/08 02:10:12;;;;;;;1.00;1.00;;;22.90;65.10;;;;;;5054427;28;20029;-29
2021/07/08 02:12:40;;;;;;;1.02;1.02;;;22.90;65.20;;;;;;5056898;28;20507;-26
2021/07/08 02:15:07;;;;;;;1.00;1.00;;;22.80;65.10;;;;;;5052551;28;20041;-24
2021/07/08 02:17:33;;;;;;;1.20;1.10;;;22.90;65.20;;;;;;5059530;28;20123;-30
2021/07/08 02:19:58;;;;;;;0.90;0.85;;;22.90;65.10;;;;;;5063341;28;20104;-32
2021/07/08 02:22:24;;;;;;;0.90;0.90;;;22.90;65.30;;;;;;5062480;28;20048;-29
2021/07/08 02:24:50;;;;;;;1.20;1.10;;;22.80;65.10;;;;;;5052627;28;20025;-27
2021/07/08 02:27:15;;;;;;;1.20;1.10;;;22.90;65.10;;;;;;5050356;28;20021;-29
2021/07/08 02:29:41;;;;;;;1.00;0.88;;;22.80;65.10;;;;;;5054583;28;20044;-31
2021/07/08 02:32:08;;;;;;;0.98;0.98;;;22.80;65.20;;;;;;5058859;28;20040;-29
2021/07/08 02:34:37;;;;;;;1.00;1.00;;;22.90;65.20;;;;;;5059775;28;20040;-26
2021/07/08 02:37:06;;;;;;;1.00;1.00;;;22.80;66.10;;;;;;5050628;28;20493;-29
2021/07/08 02:39:32;;;;;;;1.10;1.10;;;22.80;65.30;;;;;;5066066;28;20619;-28
2021/07/08 02:41:58;;;;;;;1.10;1.10;;;22.80;65.30;;;;;;5058872;28;20082;-27
2021/07/08 02:44:24;;;;;;;1.08;0.93;;;22.90;65.40;;;;;;5053610;28;20033;-26
2021/07/08 02:46:49;;;;;;;0.95;0.95;;;22.80;65.30;;;;;;5054497;28;20021;-28
2021/07/08 02:49:15;;;;;;;1.73;0.80;;;22.80;65.30;;;;;;5053563;28;20033;-29
2021/07/08 02:51:41;;;;;;;0.80;0.80;;;22.80;65.30;;;;;;5059638;28;20599;-28
2021/07/08 02:54:06;;;;;;;1.15;1.05;;;22.80;65.40;;;;;;5052007;28;20064;-25
2021/07/08 02:56:32;;;;;;;1.00;1.00;;;22.80;65.30;;;;;;5053283;28;20418;-27
2021/07/08 02:58:57;;;;;;;0.90;0.90;;;22.80;65.30;;;;;;5059231;28;20036;-28
2021/07/08 03:01:23;;;;;;;0.90;0.90;;;22.80;65.30;;;;;;5062698;28;20037;-38
2021/07/08 03:03:48;;;;;;;1.02;0.90;;;22.80;65.40;;;;;;5054091;28;20078;-27
2021/07/08 03:06:14;;;;;;;0.80;0.80;;;22.80;65.30;;;;;;5060297;28;20374;-26
2021/07/08 03:08:40;;;;;;;0.90;0.90;;;22.80;65.40;;;;;;5053506;28;20082;-27
2021/07/08 03:11:05;;;;;;;1.20;1.10;;;22.80;65.30;;;;;;5055587;28;20049;-25
2021/07/08 03:13:31;;;;;;;1.23;1.20;;;22.80;65.40;;;;;;5059009;28;20107;-30
2021/07/08 03:15:56;;;;;;;1.00;1.00;;;22.70;65.30;;;;;;5053994;28;20039;-25
2021/07/08 03:18:22;;;;;;;0.90;0.90;;;22.70;65.30;;;;;;5070338;28;20021;-31
2021/07/08 03:20:48;;;;;;;1.10;1.00;;;22.80;65.40;;;;;;5072284;28;20039;-30
2021/07/08 03:23:13;;;;;;;2.25;0.95;;;22.70;65.30;;;;;;5064575;28;20165;-28
2021/07/08 03:25:39;;;;;;;1.00;0.90;;;22.80;65.90;;;;;;5061564;28;20689;-24
2021/07/08 03:28:05;;;;;;;0.82;0.77;;;22.80;65.30;;;;;;5055261;28;20029;-25
2021/07/08 03:30:31;;;;;;;1.25;1.00;;;22.80;65.40;;;;;;5066819;28;20036;-26
2021/07/08 03:32:57;;;;;;;1.05;0.88;;;22.70;65.40;;;;;;5058898;28;20017;-28
2021/07/08 03:35:24;;;;;;;1.00;1.00;;;22.70;65.40;;;;;;5039809;28;20098;-28
2021/07/08 03:37:49;;;;;;;1.00;0.88;;;22.70;65.50;;;;;;5057246;28;20497;-25
2021/07/08 03:40:15;;;;;;;1.10;1.10;;;22.70;65.50;;;;;;5040436;28;20029;-28
2021/07/08 03:42:41;;;;;;;1.00;1.00;;;22.70;65.60;;;;;;5068438;28;20497;-27
2021/07/08 03:45:08;;;;;;;0.80;0.80;;;22.70;65.40;;;;;;5056019;28;20060;-27
2021/07/08 03:47:33;;;;;;;1.02;1.02;;;22.70;65.50;;;;;;5066956;28;20064;-28
2021/07/08 03:49:59;;;;;;;0.90;0.90;;;22.70;65.60;;;;;;5060671;28;20048;-27
2021/07/08 03:52:24;;;;;;;0.80;0.80;;;22.70;65.40;;;;;;5057033;28;20087;-29
2021/07/08 03:54:50;;;;;;;0.85;0.85;;;22.70;65.50;;;;;;5035009;28;20298;-26
2021/07/08 03:57:16;;;;;;;1.00;1.00;;;22.70;65.60;;;;;;5052704;28;20033;-29
2021/07/08 03:59:41;;;;;;;1.00;1.00;;;22.70;65.50;;;;;;5056946;28;20401;-29
2021/07/08 04:02:07;;;;;;;0.90;0.90;;;22.70;65.60;;;;;;5058152;28;20028;-31
2021/07/08 04:04:37;;;;;;;1.00;1.00;;;22.70;65.60;;;;;;5058396;28;20027;-24
2021/07/08 04:07:04;;;;;;;1.10;1.10;;;22.70;65.60;;;;;;5066038;28;20033;-28
2021/07/08 04:09:30;;;;;;;1.15;1.02;;;22.70;65.60;;;;;;5052754;28;20070;-28
2021/07/08 04:11:55;;;;;;;1.13;1.02;;;22.70;65.70;;;;;;5054251;28;20456;-32
2021/07/08 04:14:21;;;;;;;0.90;0.90;;;22.70;65.60;;;;;;5057520;28;20041;-26
2021/07/08 04:16:46;;;;;;;1.20;1.10;;;22.70;65.60;;;;;;5072330;28;20078;-26
2021/07/08 04:19:12;;;;;;;0.82;0.82;;;22.70;65.70;;;;;;5055664;28;20027;-25
2021/07/08 04:21:38;;;;;;;0.90;0.90;;;22.70;65.70;;;;;;5061348;28;20485;-27
2021/07/08 04:24:04;;;;;;;1.40;1.30;;;22.70;65.80;;;;;;5054906;28;20501;-28
2021/07/08 04:26:29;;;;;;;1.30;1.20;;;22.70;65.70;;;;;;5070491;28;20032;-35
2021/07/08 04:28:55;;;;;;;0.95;0.90;;;22.70;65.70;;;;;;5076108;28;20036;-33
2021/07/08 04:31:20;;;;;;;1.17;1.17;;;22.60;65.60;;;;;;5072386;28;20089;-28
2021/07/08 04:33:46;;;;;;;0.70;0.70;;;22.60;65.90;;;;;;5074032;28;20036;-29
2021/07/08 04:36:12;;;;;;;0.73;0.73;;;22.60;65.80;;;;;;5074764;28;20553;-34
2021/07/08 04:38:41;;;;;;;0.85;0.85;;;22.60;65.70;;;;;;5076362;28;20071;-29
2021/07/08 04:41:07;;;;;;;1.02;1.02;;;22.70;65.90;;;;;;5076037;28;20029;-26
2021/07/08 04:43:33;;;;;;;1.13;1.05;;;22.70;65.80;;;;;;5077966;28;20497;-33
2021/07/08 04:45:58;;;;;;;1.30;1.00;;;22.70;65.80;;;;;;5076774;28;20031;-30
2021/07/08 04:48:24;;;;;;;1.10;1.00;;;22.60;65.80;;;;;;5068782;28;20078;-28
2021/07/08 04:50:49;;;;;;;1.20;1.10;;;22.70;65.90;;;;;;5081525;28;20040;-28
2021/07/08 04:53:16;;;;;;;0.75;0.75;;;22.70;65.90;;;;;;5057171;28;20095;-32
2021/07/08 04:55:42;;;;;;;1.10;1.10;;;22.70;65.90;;;;;;5070241;28;20036;-29
2021/07/08 04:58:07;;;;;;;1.00;1.00;;;22.70;65.90;;;;;;5069062;28;20032;-27
2021/07/08 05:00:33;;;;;;;0.95;0.95;;;22.70;65.90;;;;;;5072636;28;20033;-31
2021/07/08 05:02:58;;;;;;;1.02;1.02;;;22.70;65.90;;;;;;5061885;28;20051;-30
2021/07/08 05:05:24;;;;;;;2.20;0.85;;;22.70;65.80;;;;;;5073981;28;20028;-31
2021/07/08 05:07:50;;;;;;;1.08;1.00;;;22.70;65.80;;;;;;5063154;28;20032;-29
2021/07/08 05:10:16;;;;;;;0.95;0.95;;;22.60;66.00;;;;;;5069719;28;20048;-30
2021/07/08 05:12:42;;;;;;;0.90;0.90;;;22.60;66.00;;;;;;5070870;28;20028;-33
2021/07/08 05:15:09;;;;;;;1.25;1.20;;;22.60;66.00;;;;;;5048408;28;20021;-34
2021/07/08 05:17:38;;;;;;;1.00;1.00;;;22.60;66.00;;;;;;5064682;28;20025;-27
2021/07/08 05:20:08;;;;;;;1.45;0.90;;;22.50;66.00;;;;;;5066688;28;20020;-27
2021/07/08 05:22:35;;;;;;;1.20;1.17;;;22.60;66.40;;;;;;5065341;28;20035;-26
2021/07/08 05:25:01;;;;;;;1.17;1.08;;;22.60;66.70;;;;;;5072184;28;20055;-27
2021/07/08 05:27:27;;;;;;;1.30;1.20;;;22.60;67.30;;;;;;5064595;28;20513;-29
2021/07/08 05:29:52;;;;;;;0.90;0.90;;;22.60;66.90;;;;;;5070379;28;20480;-34
2021/07/08 05:32:18;;;;;;;1.25;1.20;;;22.60;66.70;;;;;;5073469;28;20074;-31
2021/07/08 05:34:44;;;;;;;1.30;1.20;;;22.70;66.90;;;;;;5068726;28;20028;-32
2021/07/08 05:37:10;;;;;;;1.30;1.30;;;22.70;67.60;;;;;;5045869;28;20024;-29
2021/07/08 05:39:36;;;;;;;1.10;1.10;;;22.70;67.60;;;;;;5051875;28;20505;-30
2021/07/08 05:42:02;;;;;;;0.90;0.90;;;22.70;67.60;;;;;;5053275;28;20166;-29
2021/07/08 05:44:27;;;;;;;1.30;1.20;;;22.80;67.80;;;;;;5059338;28;20036;-32
2021/07/08 05:46:53;;;;;;;1.92;1.27;;;22.80;68.20;;;;;;5062397;28;20021;-31
2021/07/08 05:49:18;;;;;;;1.17;1.17;;;22.80;68.20;;;;;;5048004;28;20053;-31
2021/07/08 05:51:44;;;;;;;2.63;1.77;;;22.80;68.60;;;;;;5064259;28;20044;-32
2021/07/08 05:54:10;;;;;;;1.50;1.40;;;22.80;68.80;;;;;;5066422;28;20086;-30
2021/07/08 05:56:35;;;;;;;1.30;1.30;;;22.80;69.10;;;;;;5064552;28;20063;-30
2021/07/08 05:59:01;;;;;;;1.30;1.30;;;22.80;68.70;;;;;;5044044;28;20032;-31
2021/07/08 06:01:26;;;;;;;1.20;1.20;;;22.80;68.90;;;;;;5071741;28;20029;-33
2021/07/08 06:03:52;;;;;;;1.55;1.45;;;22.80;69.00;;;;;;5051652;28;20106;-36
2021/07/08 06:06:18;;;;;;;2.45;1.30;;;22.70;68.90;;;;;;5062135;28;20074;-31
2021/07/08 06:08:44;;;;;;;1.40;1.40;;;22.70;69.00;;;;;;5064939;28;20029;-38
2021/07/08 06:11:10;;;;;;;1.40;1.30;;;22.70;69.00;;;;;;5069318;28;20493;-33
2021/07/08 06:13:36;;;;;;;1.38;1.30;;;22.70;69.00;;;;;;5053526;28;20032;-29
2021/07/08 06:16:02;;;;;;;1.98;1.30;;;22.70;69.20;;;;;;5063014;28;20060;-30
2021/07/08 06:18:27;;;;;;;1.50;1.38;;;22.70;69.00;;;;;;5065149;28;20691;-30
2021/07/08 06:20:53;;;;;;;1.58;1.45;;;22.70;68.90;;;;;;5070050;28;20435;-30
2021/07/08 06:23:20;;;;;;;1.10;1.10;;;22.70;68.90;;;;;;5065485;28;20055;-32
2021/07/08 06:25:46;;;;;;;1.20;1.20;;;22.60;68.90;;;;;;5061370;28;20020;-34
2021/07/08 06:28:12;;;;;;;1.40;1.40;;;22.60;68.90;;;;;;5045110;28;20078;-29
2021/07/08 06:30:38;;;;;;;1.45;1.35;;;22.60;68.60;;;;;;5065734;28;20036;-30
2021/07/08 06:33:03;;;;;;;1.30;1.20;;;22.60;68.60;;;;;;5064193;28;20055;-30
2021/07/08 06:35:29;;;;;;;1.38;1.27;;;22.60;68.60;;;;;;5058945;28;20463;-31
2021/07/08 06:37:55;;;;;;;1.50;1.40;;;22.60;68.60;;;;;;5060671;28;20447;-36
2021/07/08 06:40:20;;;;;;;1.48;1.38;;;22.60;68.50;;;;;;5062679;28;20033;-29
2021/07/08 06:42:46;;;;;;;1.40;1.30;;;22.70;68.40;;;;;;5068460;28;20082;-26
2021/07/08 06:45:13;;;;;;;1.55;1.40;;;22.60;68.40;;;;;;5064256;28;20035;-28
2021/07/08 06:47:44;;;;;;;1.40;1.30;;;22.70;68.30;;;;;;5064413;28;20035;-32
2021/07/08 06:50:10;;;;;;;1.40;1.30;;;22.70;68.30;;;;;;5065357;28;20028;-27
2021/07/08 06:52:36;;;;;;;1.00;1.00;;;22.70;68.20;;;;;;5053813;28;20021;-29
2021/07/08 06:55:01;;;;;;;1.25;1.25;;;22.70;68.00;;;;;;5066859;28;20088;-31
2021/07/08 06:57:27;;;;;;;1.42;1.30;;;22.70;68.00;;;;;;5074541;28;20059;-30
2021/07/08 06:59:52;;;;;;;1.92;1.38;;;22.70;68.10;;;;;;5073248;28;20020;-27
2021/07/08 07:02:18;;;;;;;1.35;1.30;;;22.70;68.00;;;;;;5077680;28;20028;-31
2021/07/08 07:04:44;;;;;;;1.17;1.17;;;22.70;68.00;;;;;;5057096;28;20052;-33
2021/07/08 07:07:09;;;;;;;1.20;1.20;;;22.60;68.00;;;;;;5070667;28;20025;-35
2021/07/08 07:09:35;;;;;;;1.50;1.40;;;22.60;67.90;;;;;;5073325;28;20548;-35
2021/07/08 07:12:01;;;;;;;1.60;1.35;;;22.70;68.00;;;;;;5070633;28;20123;-33
2021/07/08 07:14:26;;;;;;;1.52;1.42;;;22.70;68.00;;;;;;5066637;28;20021;-34
2021/07/08 07:16:52;;;;;;;1.20;1.20;;;22.70;67.90;;;;;;5072267;28;20123;-32
2021/07/08 07:19:17;;;;;;;1.13;1.13;;;22.70;68.00;;;;;;5073482;28;20099;-32
2021/07/08 07:21:43;;;;;;;1.45;1.35;;;22.60;68.00;;;;;;5069599;28;20029;-33
2021/07/08 07:24:08;;;;;;;1.35;1.25;;;22.70;68.00;;;;;;5074681;28;20017;-31
2021/07/08 07:26:34;;;;;;;1.20;1.20;;;22.70;68.10;;;;;;5071135;28;20114;-29
2021/07/08 07:29:00;;;;;;;1.38;1.27;;;22.60;68.00;;;;;;5075670;28;20032;-31
2021/07/08 07:31:25;;;;;;;1.10;1.10;;;22.70;67.90;;;;;;5065756;28;20033;-32
2021/07/08 07:33:51;;;;;;;1.77;1.52;;;22.70;68.00;;;;;;5070543;28;20024;-31
2021/07/08 07:36:16;;;;;;;1.40;1.40;;;22.70;67.90;;;;;;5078000;28;20157;-33
2021/07/08 07:38:42;;;;;;;1.30;1.30;;;22.80;67.50;;;;;;5079468;28;20029;-34
2021/07/08 07:41:08;;;;;;;0.90;0.90;;;22.80;67.50;;;;;;5048411;28;20027;-29
2021/07/08 07:43:34;;;;;;;1.20;1.20;;;22.80;67.60;;;;;;5065507;28;20214;-28
2021/07/08 07:45:59;;;;;;;1.33;1.23;;;22.70;67.80;;;;;;5063969;28;20032;-31
2021/07/08 07:48:25;;;;;;;1.17;1.17;;;22.70;67.70;;;;;;5066684;28;20025;-29
2021/07/08 07:50:51;;;;;;;1.13;1.13;;;22.80;67.90;;;;;;5063702;28;20049;-29
2021/07/08 07:53:17;;;;;;;1.20;1.20;;;22.70;68.00;;;;;;5060747;28;20037;-30
2021/07/08 07:55:43;;;;;;;1.30;1.30;;;22.70;68.20;;;;;;4710331;28;10000231;-31
2021/07/08 07:58:08;;;;;;;1.60;1.50;;;22.80;68.30;;;;;;5065078;28;20396;-27
2021/07/08 08:00:34;;;;;;;1.60;1.50;;;22.80;68.40;;;;;;5072809;28;20033;-27
2021/07/08 08:03:00;;;;;;;1.40;1.30;;;22.80;68.20;;;;;;5065370;28;20031;-27
2021/07/08 08:10:42;;;;;;;2.50;1.33;;;22.80;68.20;;;;;;5063309;28;20052;-34
2021/07/08 08:13:08;;;;;;;1.60;1.60;;;22.80;68.10;;;;;;5030853;28;20037;-36
2021/07/08 08:15:33;;;;;;;1.33;1.33;;;22.80;68.10;;;;;;5040280;28;20032;-28
2021/07/08 08:18:01;;;;;;;1.98;1.70;;;22.70;68.30;;;;;;5068451;28;20036;-30
2021/07/08 08:20:28;;;;;;;1.70;1.60;;;22.80;68.00;;;;;;5075650;28;20132;-30
2021/07/08 08:22:54;;;;;;;1.10;1.10;;;22.80;68.00;;;;;;5065063;28;20028;-25
2021/07/08 08:25:20;;;;;;;1.55;1.45;;;22.80;68.30;;;;;;5062813;28;20028;-28
2021/07/08 08:27:45;;;;;;;1.60;1.50;;;22.80;68.50;;;;;;5066812;28;20021;-28
2021/07/08 08:30:13;;;;;;;1.38;1.27;;;22.70;68.70;;;;;;5062191;28;20043;-30
2021/07/08 08:32:38;;;;;;;1.10;1.10;;;22.80;68.70;;;;;;5070320;28;20085;-28
2021/07/08 08:35:05;;;;;;;1.73;1.63;;;22.80;68.70;;;;;;5063660;28;20115;-29
2021/07/08 08:37:30;;;;;;;1.60;1.50;;;22.80;68.60;;;;;;5057965;28;20079;-28
2021/07/08 08:39:56;;;;;;;1.65;1.55;;;22.90;68.50;;;;;;5060156;28;20605;-28
2021/07/08 08:42:24;;;;;;;1.35;1.30;;;22.80;68.40;;;;;;5069167;28;20763;-28
2021/07/08 08:44:50;;;;;;;2.75;1.17;;;22.90;68.40;;;;;;5066313;28;20024;-32
2021/07/08 08:47:16;;;;;;;1.50;1.40;;;22.90;68.20;;;;;;5045419;28;20039;-28
2021/07/08 08:49:41;;;;;;;1.58;1.48;;;22.90;68.00;;;;;;5062054;28;20533;-31
2021/07/08 08:52:08;;;;;;;11.10;1.55;;;22.90;68.00;;;;;;5065228;28;20074;-34
2021/07/08 08:54:35;;;;;;;1.40;1.30;;;22.90;67.90;;;;;;5064922;28;20028;-29
2021/07/08 08:57:01;;;;;;;1.58;1.48;;;22.90;67.90;;;;;;5063710;28;20449;-27
2021/07/08 08:59:26;;;;;;;1.23;1.23;;;22.90;67.70;;;;;;5068418;28;20489;-27
2021/07/08 09:02:18;;;;;;;1.30;1.13;;;22.90;67.80;;;;;;5061544;28;20051;-31
2021/07/08 09:04:45;;;;;;;1.40;1.38;;;22.80;67.70;;;;;;5059005;28;20146;-28
2021/07/08 09:07:27;;;;;;;1.50;1.40;;;22.90;67.50;;;;;;5061569;28;20106;-29
2021/07/08 09:09:56;;;;;;;1.90;1.48;;;22.90;67.60;;;;;;5064017;28;20135;-29
2021/07/08 09:12:23;;;;;;;1.77;1.67;;;22.90;67.70;;;;;;5074465;28;20068;-28
2021/07/08 09:14:50;;;;;;;1.63;1.52;;;22.80;67.60;;;;;;5076636;28;20031;-31
2021/07/08 09:17:19;;;;;;;1.58;1.40;;;22.90;67.50;;;;;;5070344;28;20027;-31
2021/07/08 09:19:46;;;;;;;1.92;1.38;;;22.90;67.30;;;;;;5064805;28;20032;-28
2021/07/08 09:22:13;;;;;;;1.60;1.50;;;22.90;67.30;;;;;;5042357;28;20379;-29
2021/07/08 09:24:39;;;;;;;1.67;1.25;;;22.90;67.30;;;;;;5076995;28;20508;-32
2021/07/08 09:27:09;;;;;;;1.48;1.38;;;22.90;68.30;;;;;;5066736;28;20064;-33
2021/07/08 09:29:43;;;;;;;1.67;1.58;;;22.80;67.70;;;;;;5060907;28;20036;-34
2021/07/08 09:32:20;;;;;;;1.52;1.42;;;22.80;67.70;;;;;;5059616;28;20048;-28
2021/07/08 09:34:49;;;;;;;1.70;1.60;;;22.80;67.50;;;;;;5060869;28;20036;-39
2021/07/08 09:37:19;;;;;;;1.83;1.73;;;22.80;67.70;;;;;;5065975;28;20034;-29
2021/07/08 09:39:49;;;;;;;1.65;1.40;;;22.80;68.00;;;;;;5070982;28;20028;-28
2021/07/08 09:42:35;;;;;;;1.60;1.50;;;22.80;68.00;;;;;;5071634;28;20451;-25
2021/07/08 09:45:05;;;;;;;1.60;1.50;;;22.80;68.10;;;;;;5064269;28;20237;-31
2021/07/08 09:47:31;;;;;;;1.73;1.55;;;22.80;67.90;;;;;;5060974;28;20104;-25
2021/07/08 09:49:57;;;;;;;2.03;1.92;;;22.80;67.80;;;;;;5066876;28;20107;-29
2021/07/08 09:52:22;;;;;;;2.03;1.80;;;22.80;67.80;;;;;;5057913;28;20075;-29
2021/07/08 09:57:40;;;;;;;1.88;1.77;;;22.90;67.90;;;;;;5058337;28;20093;-30
2021/07/08 10:00:27;;;;;;;1.67;1.65;;;22.90;67.80;;;;;;5048118;28;20491;-32
2021/07/08 10:02:53;;;;;;;1.75;1.65;;;22.80;68.80;;;;;;5068661;28;20032;-30
2021/07/08 10:05:20;;;;;;;1.60;1.50;;;22.90;67.80;;;;;;5066662;28;20092;-29
2021/07/08 10:07:45;;;;;;;2.30;2.10;;;22.90;67.60;;;;;;5065409;28;20440;-31
2021/07/08 10:10:11;;;;;;;1.80;1.73;;;22.90;67.60;;;;;;5064174;28;20562;-32
2021/07/08 10:12:37;;;;;;;2.13;2.03;;;22.90;67.30;;;;;;5049489;28;20573;-27
2021/07/08 10:15:07;;;;;;;1.80;1.70;;;22.90;66.10;;;;;;5066667;28;20442;-34
2021/07/08 10:17:34;;;;;;;1.88;1.77;;;22.90;66.00;;;;;;5060435;28;20024;-28
2021/07/08 10:20:01;;;;;;;2.08;1.88;;;22.90;66.70;;;;;;5069394;28;20028;-32
2021/07/08 10:22:27;;;;;;;3.42;3.22;;;23.00;66.50;;;;;;5061045;28;20035;-35
2021/07/08 10:24:52;;;;;;;8.90;6.55;;;23.00;66.80;;;;;;5041364;28;20032;-31
2021/07/08 10:27:18;;;;;;;7.97;7.28;;;23.00;67.40;;;;;;5070422;28;20029;-30
2021/07/08 10:29:44;;;;;;;10.95;9.18;;;23.00;67.20;;;;;;5057445;28;20074;-26
2021/07/08 10:32:13;;;;;;;11.95;10.70;;;23.00;69.40;;;;;;5056112;28;20043;-31
2021/07/08 10:34:42;;;;;;;10.43;9.35;;;23.00;68.70;;;;;;5047516;28;20105;-31
2021/07/08 10:37:08;;;;;;;9.93;9.02;;;23.00;68.40;;;;;;5048311;28;20429;-30
2021/07/08 10:39:38;;;;;;;10.38;9.48;;;23.00;68.70;;;;;;5049594;28;20029;-29
2021/07/08 10:42:04;;;;;;;8.93;8.02;;;23.00;67.60;;;;;;5051765;28;20020;-30
2021/07/08 10:44:42;;;;;;;10.13;9.23;;;23.00;68.10;;;;;;5067194;28;20017;-33
2021/07/08 10:47:30;;;;;;;8.73;7.60;;;23.00;67.80;;;;;;5057728;28;20055;-28
2021/07/08 10:50:00;;;;;;;9.18;7.68;;;23.00;66.90;;;;;;5046748;28;20041;-29
2021/07/08 10:52:45;;;;;;;8.00;6.63;;;23.10;66.20;;;;;;5044856;28;20051;-30
2021/07/08 10:55:32;;;;;;;7.43;6.80;;;23.10;66.60;;;;;;5064136;28;20059;-32
2021/07/08 10:58:06;;;;;;;5.78;5.38;;;23.10;65.90;;;;;;5066540;28;20028;-32
2021/07/08 11:00:44;;;;;;;5.53;5.00;;;23.10;65.30;;;;;;5061919;28;20032;-29
2021/07/08 11:03:36;;;;;;;5.82;5.40;;;23.10;65.10;;;;;;5068337;28;20060;-32
2021/07/08 11:06:18;;;;;;;5.43;5.03;;;23.10;65.40;;;;;;5070584;28;20033;-31
2021/07/08 11:08:47;;;;;;;5.13;4.82;;;23.10;65.40;;;;;;5050448;28;20025;-32
2021/07/08 11:11:19;;;;;;;5.60;5.20;;;23.10;65.40;;;;;;5068230;28;20036;-35
2021/07/08 11:13:45;;;;;;;5.50;5.10;;;23.10;65.70;;;;;;5065843;28;20038;-32
2021/07/08 11:16:10;;;;;;;5.25;4.95;;;23.10;65.70;;;;;;5035923;28;20021;-31
2021/07/08 11:18:36;;;;;;;4.93;4.55;;;23.10;65.60;;;;;;5047762;28;20032;-29
2021/07/08 11:21:01;;;;;;;5.10;4.57;;;23.20;65.70;;;;;;5066710;28;20079;-30
2021/07/08 11:23:41;;;;;;;4.53;4.28;;;23.20;65.80;;;;;;5051608;28;20039;-28
2021/07/08 11:26:07;;;;;;;4.55;4.25;;;23.20;65.90;;;;;;5067401;28;20027;-29
2021/07/08 11:28:33;;;;;;;5.20;4.90;;;23.30;65.80;;;;;;5070076;28;20063;-27
2021/07/08 11:31:03;;;;;;;4.68;4.28;;;23.30;65.70;;;;;;5066752;28;20037;-34
2021/07/08 11:33:31;;;;;;;4.20;3.90;;;23.30;65.90;;;;;;5066968;28;20021;-31
2021/07/08 11:36:00;;;;;;;4.70;4.40;;;23.30;65.90;;;;;;5051508;28;20504;-31
2021/07/08 11:38:26;;;;;;;4.13;3.83;;;23.40;65.90;;;;;;5048663;28;20028;-31
2021/07/08 11:40:53;;;;;;;4.57;4.28;;;23.40;65.70;;;;;;5050072;28;20047;-27
2021/07/08 11:43:30;;;;;;;4.72;4.47;;;23.40;65.60;;;;;;5068386;28;20017;-29
2021/07/08 11:46:03;;;;;;;4.95;4.60;;;23.50;65.50;;;;;;5066500;28;20028;-28
2021/07/08 11:48:31;;;;;;;5.15;4.13;;;23.50;65.50;;;;;;5070159;28;20032;-34
2021/07/08 11:50:57;;;;;;;4.25;4.05;;;23.50;65.50;;;;;;5068818;28;20040;-31
2021/07/08 11:53:22;;;;;;;4.22;4.03;;;23.50;65.60;;;;;;5066467;28;20112;-31
2021/07/08 11:55:50;;;;;;;4.20;3.90;;;23.60;65.70;;;;;;5065254;28;20035;-35
2021/07/08 11:58:22;;;;;;;4.15;3.92;;;23.60;65.60;;;;;;5050888;28;20029;-35
2021/07/08 12:00:49;;;;;;;4.18;3.88;;;23.60;65.60;;;;;;5067186;28;20504;-31
2021/07/08 12:03:31;;;;;;;3.90;3.60;;;23.60;65.60;;;;;;5065177;28;20033;-33
2021/07/08 12:06:03;;;;;;;4.47;4.18;;;23.60;65.50;;;;;;5071361;28;20013;-33
2021/07/08 12:08:53;;;;;;;4.03;3.70;;;23.60;65.50;;;;;;5069817;28;20024;-34
2021/07/08 12:11:26;;;;;;;4.10;3.90;;;23.70;65.60;;;;;;5065157;28;20083;-37
2021/07/08 12:13:56;;;;;;;4.00;3.80;;;23.70;65.40;;;;;;5064861;28;20043;-31
2021/07/08 12:16:32;;;;;;;4.07;3.80;;;23.70;65.50;;;;;;5065612;28;20032;-32
2021/07/08 12:18:59;;;;;;;4.15;3.85;;;23.70;65.30;;;;;;5067766;28;20058;-30
2021/07/08 12:21:29;;;;;;;3.92;3.67;;;23.80;65.50;;;;;;5065970;28;20079;-36
2021/07/08 12:24:03;;;;;;;3.75;3.58;;;23.80;65.40;;;;;;5070186;28;20024;-33
2021/07/08 12:26:32;;;;;;;4.25;3.95;;;23.70;65.50;;;;;;5066880;28;20036;-28
2021/07/08 12:29:14;;;;;;;3.42;3.22;;;23.80;65.50;;;;;;5063733;28;20032;-31
2021/07/08 12:31:41;;;;;;;3.95;3.75;;;23.80;65.30;;;;;;4713847;28;10000476;-32
2021/07/08 12:34:07;;;;;;;3.90;3.63;;;23.80;65.40;;;;;;5062529;28;20074;-34
2021/07/08 12:36:32;;;;;;;5.70;3.50;;;23.80;65.40;;;;;;5067175;28;20545;-31
2021/07/08 12:38:58;;;;;;;3.15;3.00;;;23.90;65.30;;;;;;5065532;28;20028;-31
2021/07/08 12:41:23;;;;;;;3.58;3.38;;;23.90;65.50;;;;;;5067427;28;20036;-31
2021/07/08 12:43:49;;;;;;;3.28;3.08;;;23.80;65.50;;;;;;5070369;28;20017;-34
2021/07/08 12:46:14;;;;;;;3.47;3.22;;;23.80;65.60;;;;;;5049471;28;20556;-32
2021/07/08 12:48:41;;;;;;;3.40;3.20;;;23.90;65.70;;;;;;5063894;28;20029;-28
2021/07/08 12:51:06;;;;;;;3.20;3.00;;;23.90;65.60;;;;;;5046316;28;20040;-30
2021/07/08 12:53:33;;;;;;;3.30;3.10;;;23.90;65.70;;;;;;5027721;28;20071;-35